Hobart, Oklahoma
Current Conditions -  °F | °C
As of 11:53 AM on Monday 22 Dec 2014 (Local Time) from KHBR Reporting Station
Few Clouds Few Clouds  
Wind Chill: 56°   Ceiling: Unl
Heat Index: 56°   Visibility: 10mi
Dew Point: 37°   Wind: 20mph
Humidity: 49%   Direction: 340°NNW
Pressure: 29.67"   Gusts: NA
Location:  35.03°N, 99.09°W
Report Text: KHBR 221753Z AUTO 34017KT 10SM FEW120 13/03 A2967 RMK AO2 PK WND 36027/1654 SLP043 T01330028 10133 20044 51012
Loading
Personal Weather Stations






























Interactive Weather Map New forecast layout! Learn more

10-Day Weather Forecast

Advertisements
Track Severe Weather on mobile